sensor_id;sensor_type;location;lat;lon;timestamp;temperature;humidity
5842;DHT22;2947;52.276;9.946;2023-04-26T00:02:02;3.80;99.90
5842;DHT22;2947;52.276;9.946;2023-04-26T00:04:29;3.80;99.90
5842;DHT22;2947;52.276;9.946;2023-04-26T00:06:56;3.80;1.00
5842;DHT22;2947;52.276;9.946;2023-04-26T00:09:22;3.80;1.00
5842;DHT22;2947;52.276;9.946;2023-04-26T00:11:48;3.80;1.00
5842;DHT22;2947;52.276;9.946;2023-04-26T00:14:13;3.70;1.00
5842;DHT22;2947;52.276;9.946;2023-04-26T00:16:39;3.80;99.90
5842;DHT22;2947;52.276;9.946;2023-04-26T00:19:05;3.70;76.00
5842;DHT22;2947;52.276;9.946;2023-04-26T00:21:31;3.80;1.00
5842;DHT22;2947;52.276;9.946;2023-04-26T00:23:56;3.70;1.00
5842;DHT22;2947;52.276;9.946;2023-04-26T00:26:22;3.70;1.00
5842;DHT22;2947;52.276;9.946;2023-04-26T00:28:48;3.70;1.60
5842;DHT22;2947;52.276;9.946;2023-04-26T00:31:17;3.60;1.00
5842;DHT22;2947;52.276;9.946;2023-04-26T00:33:43;3.60;99.90
5842;DHT22;2947;52.276;9.946;2023-04-26T00:36:09;3.70;53.80
5842;DHT22;2947;52.276;9.946;2023-04-26T00:38:35;3.60;99.90
5842;DHT22;2947;52.276;9.946;2023-04-26T00:41:01;3.60;99.90
5842;DHT22;2947;52.276;9.946;2023-04-26T00:43:27;3.60;99.90
5842;DHT22;2947;52.276;9.946;2023-04-26T00:45:52;3.50;99.90
5842;DHT22;2947;52.276;9.946;2023-04-26T00:48:19;3.50;99.90
5842;DHT22;2947;52.276;9.946;2023-04-26T00:50:45;3.50;99.90
5842;DHT22;2947;52.276;9.946;2023-04-26T00:53:15;3.50;1.00
5842;DHT22;2947;52.276;9.946;2023-04-26T00:55:42;3.50;99.90
5842;DHT22;2947;52.276;9.946;2023-04-26T00:58:08;3.40;99.90
5842;DHT22;2947;52.276;9.946;2023-04-26T01:00:34;3.50;1.00
5842;DHT22;2947;52.276;9.946;2023-04-26T01:03:00;3.40;1.00
5842;DHT22;2947;52.276;9.946;2023-04-26T01:05:25;3.40;1.00
5842;DHT22;2947;52.276;9.946;2023-04-26T01:07:51;3.40;1.00
5842;DHT22;2947;52.276;9.946;2023-04-26T01:10:17;3.40;1.00
5842;DHT22;2947;52.276;9.946;2023-04-26T01:12:43;3.40;99.90
5842;DHT22;2947;52.276;9.946;2023-04-26T01:15:10;3.40;99.90
5842;DHT22;2947;52.276;9.946;2023-04-26T01:17:36;3.40;1.00
5842;DHT22;2947;52.276;9.946;2023-04-26T01:20:03;3.30;6.40
5842;DHT22;2947;52.276;9.946;2023-04-26T01:22:36;3.30;99.20
5842;DHT22;2947;52.276;9.946;2023-04-26T01:25:03;3.30;1.00
5842;DHT22;2947;52.276;9.946;2023-04-26T01:27:32;4.00;1.00
5842;DHT22;2947;52.276;9.946;2023-04-26T01:29:58;3.30;70.50
5842;DHT22;2947;52.276;9.946;2023-04-26T01:32:23;3.30;16.80
5842;DHT22;2947;52.276;9.946;2023-04-26T01:34:49;3.30;8.10
5842;DHT22;2947;52.276;9.946;2023-04-26T01:37:14;3.20;48.50
5842;DHT22;2947;52.276;9.946;2023-04-26T01:39:40;3.30;14.00
5842;DHT22;2947;52.276;9.946;2023-04-26T01:42:06;3.30;1.00
5842;DHT22;2947;52.276;9.946;2023-04-26T01:44:32;3.20;1.00
5842;DHT22;2947;52.276;9.946;2023-04-26T01:46:57;3.30;1.00
5842;DHT22;2947;52.276;9.946;2023-04-26T01:49:23;3.20;1.00
5842;DHT22;2947;52.276;9.946;2023-04-26T01:51:49;3.10;1.00
5842;DHT22;2947;52.276;9.946;2023-04-26T01:54:14;3.20;99.90
5842;DHT22;2947;52.276;9.946;2023-04-26T01:56:40;3.20;14.10
5842;DHT22;2947;52.276;9.946;2023-04-26T01:59:06;3.20;38.40
5842;DHT22;2947;52.276;9.946;2023-04-26T02:01:32;3.20;99.90
5842;DHT22;2947;52.276;9.946;2023-04-26T02:03:57;3.10;99.90
5842;DHT22;2947;52.276;9.946;2023-04-26T02:06:23;3.20;99.90
5842;DHT22;2947;52.276;9.946;2023-04-26T02:08:49;3.20;99.90
5842;DHT22;2947;52.276;9.946;2023-04-26T02:11:14;3.20;99.90
5842;DHT22;2947;52.276;9.946;2023-04-26T02:13:40;3.10;99.90
5842;DHT22;2947;52.276;9.946;2023-04-26T02:16:06;3.20;99.90
5842;DHT22;2947;52.276;9.946;2023-04-26T02:18:32;3.20;99.90
5842;DHT22;2947;52.276;9.946;2023-04-26T02:20:58;3.10;90.20
5842;DHT22;2947;52.276;9.946;2023-04-26T02:23:24;3.20;42.40
5842;DHT22;2947;52.276;9.946;2023-04-26T02:25:50;3.10;49.50
5842;DHT22;2947;52.276;9.946;2023-04-26T02:28:16;3.10;99.90
5842;DHT22;2947;52.276;9.946;2023-04-26T02:30:41;3.10;94.90
5842;DHT22;2947;52.276;9.946;2023-04-26T02:33:08;3.10;99.90
5842;DHT22;2947;52.276;9.946;2023-04-26T02:35:34;3.10;56.80
5842;DHT22;2947;52.276;9.946;2023-04-26T02:38:01;3.10;99.90
5842;DHT22;2947;52.276;9.946;2023-04-26T02:40:27;3.00;52.50
5842;DHT22;2947;52.276;9.946;2023-04-26T02:42:54;3.00;38.50
5842;DHT22;2947;52.276;9.946;2023-04-26T02:45:20;3.00;42.70
5842;DHT22;2947;52.276;9.946;2023-04-26T02:47:45;3.00;32.10
5842;DHT22;2947;52.276;9.946;2023-04-26T02:50:11;3.00;97.60
5842;DHT22;2947;52.276;9.946;2023-04-26T02:52:37;3.00;1.00
5842;DHT22;2947;52.276;9.946;2023-04-26T02:55:03;3.00;1.00
5842;DHT22;2947;52.276;9.946;2023-04-26T02:57:30;3.00;1.00
5842;DHT22;2947;52.276;9.946;2023-04-26T02:59:56;3.00;22.30
5842;DHT22;2947;52.276;9.946;2023-04-26T03:02:22;2.90;58.90
5842;DHT22;2947;52.276;9.946;2023-04-26T03:04:48;2.90;24.80
5842;DHT22;2947;52.276;9.946;2023-04-26T03:07:14;2.90;99.90
5842;DHT22;2947;52.276;9.946;2023-04-26T03:09:40;2.90;99.90
5842;DHT22;2947;52.276;9.946;2023-04-26T03:12:06;2.90;99.90
5842;DHT22;2947;52.276;9.946;2023-04-26T03:14:32;3.60;99.90
5842;DHT22;2947;52.276;9.946;2023-04-26T03:16:59;2.90;99.90
5842;DHT22;2947;52.276;9.946;2023-04-26T03:19:25;2.90;99.90
5842;DHT22;2947;52.276;9.946;2023-04-26T03:21:54;2.90;99.90
5842;DHT22;2947;52.276;9.946;2023-04-26T03:24:20;2.90;99.90
5842;DHT22;2947;52.276;9.946;2023-04-26T03:26:45;2.90;99.90
5842;DHT22;2947;52.276;9.946;2023-04-26T03:29:11;2.90;99.90
5842;DHT22;2947;52.276;9.946;2023-04-26T03:31:37;2.90;99.90
5842;DHT22;2947;52.276;9.946;2023-04-26T03:34:03;3.00;99.90
5842;DHT22;2947;52.276;9.946;2023-04-26T03:36:29;3.00;99.90
5842;DHT22;2947;52.276;9.946;2023-04-26T03:38:55;2.90;99.90
5842;DHT22;2947;52.276;9.946;2023-04-26T03:41:21;2.90;99.90
5842;DHT22;2947;52.276;9.946;2023-04-26T03:43:47;3.00;99.90
5842;DHT22;2947;52.276;9.946;2023-04-26T03:46:13;2.90;99.90
5842;DHT22;2947;52.276;9.946;2023-04-26T03:48:39;3.00;99.90
5842;DHT22;2947;52.276;9.946;2023-04-26T03:51:05;3.00;99.90
5842;DHT22;2947;52.276;9.946;2023-04-26T03:53:31;2.90;99.90
5842;DHT22;2947;52.276;9.946;2023-04-26T03:55:57;2.90;99.90
5842;DHT22;2947;52.276;9.946;2023-04-26T03:58:24;2.90;99.90
5842;DHT22;2947;52.276;9.946;2023-04-26T04:00:50;2.80;99.90
5842;DHT22;2947;52.276;9.946;2023-04-26T04:03:16;2.80;99.90
5842;DHT22;2947;52.276;9.946;2023-04-26T04:05:42;2.70;99.90
5842;DHT22;2947;52.276;9.946;2023-04-26T04:08:08;2.70;99.90
5842;DHT22;2947;52.276;9.946;2023-04-26T04:10:34;2.70;99.90
5842;DHT22;2947;52.276;9.946;2023-04-26T04:13:01;2.70;99.90
5842;DHT22;2947;52.276;9.946;2023-04-26T04:15:26;2.70;99.90
5842;DHT22;2947;52.276;9.946;2023-04-26T04:17:52;2.70;99.90
5842;DHT22;2947;52.276;9.946;2023-04-26T04:20:18;2.70;1.00
5842;DHT22;2947;52.276;9.946;2023-04-26T04:22:45;2.70;1.00
5842;DHT22;2947;52.276;9.946;2023-04-26T04:25:11;2.70;1.00
5842;DHT22;2947;52.276;9.946;2023-04-26T04:27:38;2.70;1.00
5842;DHT22;2947;52.276;9.946;2023-04-26T04:30:07;2.70;1.00
5842;DHT22;2947;52.276;9.946;2023-04-26T04:32:36;2.70;1.00
5842;DHT22;2947;52.276;9.946;2023-04-26T04:35:04;2.70;1.00
5842;DHT22;2947;52.276;9.946;2023-04-26T04:37:31;2.70;1.00
5842;DHT22;2947;52.276;9.946;2023-04-26T04:39:58;2.40;1.00
5842;DHT22;2947;52.276;9.946;2023-04-26T04:42:24;2.80;1.00
5842;DHT22;2947;52.276;9.946;2023-04-26T04:44:51;2.80;1.00
5842;DHT22;2947;52.276;9.946;2023-04-26T04:47:17;2.80;1.00
5842;DHT22;2947;52.276;9.946;2023-04-26T04:49:44;2.90;1.00
5842;DHT22;2947;52.276;9.946;2023-04-26T04:52:09;2.90;1.00
5842;DHT22;2947;52.276;9.946;2023-04-26T04:54:35;2.90;1.00
5842;DHT22;2947;52.276;9.946;2023-04-26T04:57:01;3.00;1.00
5842;DHT22;2947;52.276;9.946;2023-04-26T04:59:28;3.00;1.00
5842;DHT22;2947;52.276;9.946;2023-04-26T05:01:54;3.10;1.00
5842;DHT22;2947;52.276;9.946;2023-04-26T05:04:20;3.10;1.00
5842;DHT22;2947;52.276;9.946;2023-04-26T05:06:46;3.20;1.00
5842;DHT22;2947;52.276;9.946;2023-04-26T05:09:11;3.30;1.00
5842;DHT22;2947;52.276;9.946;2023-04-26T05:11:37;3.30;1.00
5842;DHT22;2947;52.276;9.946;2023-04-26T05:14:03;3.30;1.00
5842;DHT22;2947;52.276;9.946;2023-04-26T05:16:28;3.40;1.00
5842;DHT22;2947;52.276;9.946;2023-04-26T05:18:54;3.40;1.00
5842;DHT22;2947;52.276;9.946;2023-04-26T05:21:20;3.40;1.00
5842;DHT22;2947;52.276;9.946;2023-04-26T05:23:47;3.50;1.00
5842;DHT22;2947;52.276;9.946;2023-04-26T05:26:15;3.50;1.00
5842;DHT22;2947;52.276;9.946;2023-04-26T05:28:41;3.50;1.00
5842;DHT22;2947;52.276;9.946;2023-04-26T05:31:08;3.50;1.00
5842;DHT22;2947;52.276;9.946;2023-04-26T05:33:34;3.60;1.00
5842;DHT22;2947;52.276;9.946;2023-04-26T05:36:00;3.60;99.90
5842;DHT22;2947;52.276;9.946;2023-04-26T05:38:27;3.60;99.90
5842;DHT22;2947;52.276;9.946;2023-04-26T05:40:54;3.60;99.90
5842;DHT22;2947;52.276;9.946;2023-04-26T05:43:20;3.70;99.90
5842;DHT22;2947;52.276;9.946;2023-04-26T05:45:55;3.90;99.90
5842;DHT22;2947;52.276;9.946;2023-04-26T05:48:22;4.00;99.90
5842;DHT22;2947;52.276;9.946;2023-04-26T05:50:49;4.10;99.90
5842;DHT22;2947;52.276;9.946;2023-04-26T05:53:16;4.30;99.90
5842;DHT22;2947;52.276;9.946;2023-04-26T05:55:44;4.40;99.90
5842;DHT22;2947;52.276;9.946;2023-04-26T05:58:10;4.50;99.90
5842;DHT22;2947;52.276;9.946;2023-04-26T06:00:36;4.60;1.00
5842;DHT22;2947;52.276;9.946;2023-04-26T06:03:03;4.70;1.00
5842;DHT22;2947;52.276;9.946;2023-04-26T06:05:30;4.80;99.90
5842;DHT22;2947;52.276;9.946;2023-04-26T06:07:56;4.90;69.00
5842;DHT22;2947;52.276;9.946;2023-04-26T06:10:21;5.00;1.00
5842;DHT22;2947;52.276;9.946;2023-04-26T06:12:47;5.90;99.90
5842;DHT22;2947;52.276;9.946;2023-04-26T06:15:13;5.20;1.00
5842;DHT22;2947;52.276;9.946;2023-04-26T06:17:39;5.30;99.90
5842;DHT22;2947;52.276;9.946;2023-04-26T06:20:07;5.40;1.00
5842;DHT22;2947;52.276;9.946;2023-04-26T06:22:36;5.60;99.90
5842;DHT22;2947;52.276;9.946;2023-04-26T06:25:03;5.70;11.80
5842;DHT22;2947;52.276;9.946;2023-04-26T06:27:31;5.70;99.90
5842;DHT22;2947;52.276;9.946;2023-04-26T06:29:57;5.80;99.90
5842;DHT22;2947;52.276;9.946;2023-04-26T06:32:23;6.20;1.00
5842;DHT22;2947;52.276;9.946;2023-04-26T06:34:49;6.10;92.90
5842;DHT22;2947;52.276;9.946;2023-04-26T06:37:14;6.20;14.40
5842;DHT22;2947;52.276;9.946;2023-04-26T06:39:40;6.30;1.00
5842;DHT22;2947;52.276;9.946;2023-04-26T06:42:06;6.30;1.00
5842;DHT22;2947;52.276;9.946;2023-04-26T06:44:32;6.40;1.00
5842;DHT22;2947;52.276;9.946;2023-04-26T06:46:58;6.50;1.00
5842;DHT22;2947;52.276;9.946;2023-04-26T06:49:24;6.70;1.00
5842;DHT22;2947;52.276;9.946;2023-04-26T06:51:50;6.80;99.90
5842;DHT22;2947;52.276;9.946;2023-04-26T06:54:19;6.90;48.80
5842;DHT22;2947;52.276;9.946;2023-04-26T06:56:45;7.10;8.60
5842;DHT22;2947;52.276;9.946;2023-04-26T06:59:10;7.30;1.00
5842;DHT22;2947;52.276;9.946;2023-04-26T07:01:37;7.30;1.00
5842;DHT22;2947;52.276;9.946;2023-04-26T07:04:04;7.50;99.90
5842;DHT22;2947;52.276;9.946;2023-04-26T07:06:37;7.50;99.90
5842;DHT22;2947;52.276;9.946;2023-04-26T07:09:03;7.50;99.90
5842;DHT22;2947;52.276;9.946;2023-04-26T07:11:30;7.70;99.90
5842;DHT22;2947;52.276;9.946;2023-04-26T07:13:56;7.70;99.90
5842;DHT22;2947;52.276;9.946;2023-04-26T07:16:22;7.70;1.00
5842;DHT22;2947;52.276;9.946;2023-04-26T07:18:48;7.70;1.00
5842;DHT22;2947;52.276;9.946;2023-04-26T07:21:14;7.80;1.00
5842;DHT22;2947;52.276;9.946;2023-04-26T07:23:40;7.90;20.20
5842;DHT22;2947;52.276;9.946;2023-04-26T07:26:06;8.00;1.00
5842;DHT22;2947;52.276;9.946;2023-04-26T07:28:32;8.20;1.00
5842;DHT22;2947;52.276;9.946;2023-04-26T07:30:58;8.30;1.00
5842;DHT22;2947;52.276;9.946;2023-04-26T07:33:25;8.40;1.00
5842;DHT22;2947;52.276;9.946;2023-04-26T07:35:55;8.50;1.00
5842;DHT22;2947;52.276;9.946;2023-04-26T07:38:22;8.40;1.00
5842;DHT22;2947;52.276;9.946;2023-04-26T07:40:48;8.40;1.00
5842;DHT22;2947;52.276;9.946;2023-04-26T07:43:15;8.60;1.00
5842;DHT22;2947;52.276;9.946;2023-04-26T07:45:41;8.60;1.00
5842;DHT22;2947;52.276;9.946;2023-04-26T07:48:07;8.60;1.00
5842;DHT22;2947;52.276;9.946;2023-04-26T07:50:33;8.60;1.00
5842;DHT22;2947;52.276;9.946;2023-04-26T07:52:59;8.70;1.00
5842;DHT22;2947;52.276;9.946;2023-04-26T07:55:24;8.70;1.00
5842;DHT22;2947;52.276;9.946;2023-04-26T07:57:51;8.80;1.00
5842;DHT22;2947;52.276;9.946;2023-04-26T08:00:17;8.80;99.90
5842;DHT22;2947;52.276;9.946;2023-04-26T08:02:44;8.90;99.90
5842;DHT22;2947;52.276;9.946;2023-04-26T08:05:13;9.00;99.90
5842;DHT22;2947;52.276;9.946;2023-04-26T08:07:40;8.90;99.90
5842;DHT22;2947;52.276;9.946;2023-04-26T08:10:07;8.90;99.90
5842;DHT22;2947;52.276;9.946;2023-04-26T08:12:34;9.10;99.90
5842;DHT22;2947;52.276;9.946;2023-04-26T08:15:02;9.20;99.90
5842;DHT22;2947;52.276;9.946;2023-04-26T08:17:31;9.30;99.90
5842;DHT22;2947;52.276;9.946;2023-04-26T08:19:58;9.40;99.90
5842;DHT22;2947;52.276;9.946;2023-04-26T08:22:24;9.50;99.90
5842;DHT22;2947;52.276;9.946;2023-04-26T08:24:54;9.80;99.90
5842;DHT22;2947;52.276;9.946;2023-04-26T08:27:20;9.70;99.90
5842;DHT22;2947;52.276;9.946;2023-04-26T08:29:46;9.50;99.90
5842;DHT22;2947;52.276;9.946;2023-04-26T08:32:12;9.90;99.90
5842;DHT22;2947;52.276;9.946;2023-04-26T08:34:38;9.70;99.90
5842;DHT22;2947;52.276;9.946;2023-04-26T08:37:06;9.60;99.90
5842;DHT22;2947;52.276;9.946;2023-04-26T08:39:32;9.60;99.90
5842;DHT22;2947;52.276;9.946;2023-04-26T08:42:04;9.70;99.90
5842;DHT22;2947;52.276;9.946;2023-04-26T08:44:34;9.90;99.90
5842;DHT22;2947;52.276;9.946;2023-04-26T08:47:09;10.80;99.90
5842;DHT22;2947;52.276;9.946;2023-04-26T08:49:44;9.90;99.90
5842;DHT22;2947;52.276;9.946;2023-04-26T08:52:17;10.00;99.90
5842;DHT22;2947;52.276;9.946;2023-04-26T08:54:49;10.00;99.90
5842;DHT22;2947;52.276;9.946;2023-04-26T08:57:18;9.90;99.90
5842;DHT22;2947;52.276;9.946;2023-04-26T08:59:45;9.90;99.90
5842;DHT22;2947;52.276;9.946;2023-04-26T09:02:16;9.90;99.90
5842;DHT22;2947;52.276;9.946;2023-04-26T09:04:46;9.90;99.90
5842;DHT22;2947;52.276;9.946;2023-04-26T09:07:36;9.90;99.90
5842;DHT22;2947;52.276;9.946;2023-04-26T09:10:05;10.10;99.90
5842;DHT22;2947;52.276;9.946;2023-04-26T09:12:32;10.10;99.90
5842;DHT22;2947;52.276;9.946;2023-04-26T09:14:59;10.20;99.90
5842;DHT22;2947;52.276;9.946;2023-04-26T09:17:35;10.20;99.90
5842;DHT22;2947;52.276;9.946;2023-04-26T09:20:26;10.10;99.90
5842;DHT22;2947;52.276;9.946;2023-04-26T09:23:04;10.00;99.90
5842;DHT22;2947;52.276;9.946;2023-04-26T09:25:32;10.00;99.90
5842;DHT22;2947;52.276;9.946;2023-04-26T09:27:59;10.00;99.90
5842;DHT22;2947;52.276;9.946;2023-04-26T09:30:26;10.00;99.90
5842;DHT22;2947;52.276;9.946;2023-04-26T09:32:57;10.00;99.90
5842;DHT22;2947;52.276;9.946;2023-04-26T09:38:03;9.80;99.90
5842;DHT22;2947;52.276;9.946;2023-04-26T09:40:33;9.70;99.90
5842;DHT22;2947;52.276;9.946;2023-04-26T09:43:06;9.80;99.90
5842;DHT22;2947;52.276;9.946;2023-04-26T09:45:55;9.50;99.90
5842;DHT22;2947;52.276;9.946;2023-04-26T09:50:58;9.50;99.90
5842;DHT22;2947;52.276;9.946;2023-04-26T09:53:37;9.60;99.90
5842;DHT22;2947;52.276;9.946;2023-04-26T09:58:57;9.80;99.90
5842;DHT22;2947;52.276;9.946;2023-04-26T10:01:26;9.90;99.90
5842;DHT22;2947;52.276;9.946;2023-04-26T10:03:54;9.90;99.90
5842;DHT22;2947;52.276;9.946;2023-04-26T10:06:22;10.00;99.90
5842;DHT22;2947;52.276;9.946;2023-04-26T10:08:48;10.10;99.90
5842;DHT22;2947;52.276;9.946;2023-04-26T10:11:14;10.20;99.90
5842;DHT22;2947;52.276;9.946;2023-04-26T10:13:40;10.40;99.90
5842;DHT22;2947;52.276;9.946;2023-04-26T10:16:07;10.70;99.90
5842;DHT22;2947;52.276;9.946;2023-04-26T10:18:36;10.80;99.90
5842;DHT22;2947;52.276;9.946;2023-04-26T10:21:11;10.90;99.90
5842;DHT22;2947;52.276;9.946;2023-04-26T10:23:41;11.10;99.90
5842;DHT22;2947;52.276;9.946;2023-04-26T10:29:12;11.50;99.90
5842;DHT22;2947;52.276;9.946;2023-04-26T10:34:26;11.80;99.90
5842;DHT22;2947;52.276;9.946;2023-04-26T10:37:12;11.80;99.90
5842;DHT22;2947;52.276;9.946;2023-04-26T10:39:39;11.80;99.90
5842;DHT22;2947;52.276;9.946;2023-04-26T10:44:53;12.10;99.90
5842;DHT22;2947;52.276;9.946;2023-04-26T10:47:21;11.80;99.90
5842;DHT22;2947;52.276;9.946;2023-04-26T10:49:48;11.50;99.90
5842;DHT22;2947;52.276;9.946;2023-04-26T10:52:19;11.50;99.90
5842;DHT22;2947;52.276;9.946;2023-04-26T10:54:52;11.40;99.90
5842;DHT22;2947;52.276;9.946;2023-04-26T10:58:24;11.50;99.90
5842;DHT22;2947;52.276;9.946;2023-04-26T11:00:16;11.50;99.90
5842;DHT22;2947;52.276;9.946;2023-04-26T11:05:36;11.30;99.90
5842;DHT22;2947;52.276;9.946;2023-04-26T11:08:14;11.20;99.90
5842;DHT22;2947;52.276;9.946;2023-04-26T11:10:48;11.30;99.90
5842;DHT22;2947;52.276;9.946;2023-04-26T11:13:21;11.30;99.90
5842;DHT22;2947;52.276;9.946;2023-04-26T11:15:51;11.20;99.90
5842;DHT22;2947;52.276;9.946;2023-04-26T11:18:19;11.30;99.90
5842;DHT22;2947;52.276;9.946;2023-04-26T11:20:45;11.10;99.90
5842;DHT22;2947;52.276;9.946;2023-04-26T11:23:11;11.10;99.90
5842;DHT22;2947;52.276;9.946;2023-04-26T11:25:40;11.20;99.90
5842;DHT22;2947;52.276;9.946;2023-04-26T11:28:06;11.20;99.90
5842;DHT22;2947;52.276;9.946;2023-04-26T11:30:32;11.40;99.90
5842;DHT22;2947;52.276;9.946;2023-04-26T11:32:59;11.10;99.90
5842;DHT22;2947;52.276;9.946;2023-04-26T11:35:37;11.10;99.90
5842;DHT22;2947;52.276;9.946;2023-04-26T11:38:07;10.90;99.90
5842;DHT22;2947;52.276;9.946;2023-04-26T11:40:33;11.00;99.90
5842;DHT22;2947;52.276;9.946;2023-04-26T11:43:03;11.20;99.90
5842;DHT22;2947;52.276;9.946;2023-04-26T11:45:31;11.40;99.90
5842;DHT22;2947;52.276;9.946;2023-04-26T11:47:59;11.40;99.90
5842;DHT22;2947;52.276;9.946;2023-04-26T11:50:26;11.40;99.90
5842;DHT22;2947;52.276;9.946;2023-04-26T11:52:55;12.30;99.90
5842;DHT22;2947;52.276;9.946;2023-04-26T11:55:27;11.60;99.90
5842;DHT22;2947;52.276;9.946;2023-04-26T11:57:57;11.80;99.90
5842;DHT22;2947;52.276;9.946;2023-04-26T12:00:24;11.80;99.90
5842;DHT22;2947;52.276;9.946;2023-04-26T12:02:50;11.60;99.90
5842;DHT22;2947;52.276;9.946;2023-04-26T12:05:24;11.70;99.90
5842;DHT22;2947;52.276;9.946;2023-04-26T12:07:51;11.60;99.90
5842;DHT22;2947;52.276;9.946;2023-04-26T12:10:22;11.70;99.90
5842;DHT22;2947;52.276;9.946;2023-04-26T12:12:55;11.70;99.90
5842;DHT22;2947;52.276;9.946;2023-04-26T12:15:30;11.70;99.90
5842;DHT22;2947;52.276;9.946;2023-04-26T12:18:05;11.70;99.90
5842;DHT22;2947;52.276;9.946;2023-04-26T12:20:39;11.70;99.90
5842;DHT22;2947;52.276;9.946;2023-04-26T12:23:15;12.30;99.90
5842;DHT22;2947;52.276;9.946;2023-04-26T12:25:54;11.70;99.90
5842;DHT22;2947;52.276;9.946;2023-04-26T12:28:22;11.80;99.90
5842;DHT22;2947;52.276;9.946;2023-04-26T12:30:49;12.10;99.90
5842;DHT22;2947;52.276;9.946;2023-04-26T12:33:16;12.40;99.90
5842;DHT22;2947;52.276;9.946;2023-04-26T12:35:44;13.10;99.90
5842;DHT22;2947;52.276;9.946;2023-04-26T12:38:11;12.60;99.90
5842;DHT22;2947;52.276;9.946;2023-04-26T12:40:38;12.70;99.90
5842;DHT22;2947;52.276;9.946;2023-04-26T12:43:09;12.60;99.90
5842;DHT22;2947;52.276;9.946;2023-04-26T12:45:35;12.60;99.90
5842;DHT22;2947;52.276;9.946;2023-04-26T12:48:01;12.70;99.90
5842;DHT22;2947;52.276;9.946;2023-04-26T12:50:28;12.80;99.90
5842;DHT22;2947;52.276;9.946;2023-04-26T12:52:54;12.80;99.90
5842;DHT22;2947;52.276;9.946;2023-04-26T12:55:19;12.80;99.90
5842;DHT22;2947;52.276;9.946;2023-04-26T12:57:48;13.20;99.90
5842;DHT22;2947;52.276;9.946;2023-04-26T13:00:15;13.10;99.90
5842;DHT22;2947;52.276;9.946;2023-04-26T13:03:08;13.10;99.90
5842;DHT22;2947;52.276;9.946;2023-04-26T13:05:35;13.10;99.90
5842;DHT22;2947;52.276;9.946;2023-04-26T13:08:01;13.00;99.90
5842;DHT22;2947;52.276;9.946;2023-04-26T13:10:30;13.10;99.90
5842;DHT22;2947;52.276;9.946;2023-04-26T13:12:57;13.10;99.90
5842;DHT22;2947;52.276;9.946;2023-04-26T13:15:23;13.00;99.90
5842;DHT22;2947;52.276;9.946;2023-04-26T13:17:51;13.90;99.40
5842;DHT22;2947;52.276;9.946;2023-04-26T13:20:17;13.20;97.60
5842;DHT22;2947;52.276;9.946;2023-04-26T13:22:43;12.60;95.00
5842;DHT22;2947;52.276;9.946;2023-04-26T13:25:15;12.30;92.80
5842;DHT22;2947;52.276;9.946;2023-04-26T13:27:44;13.10;99.90
5842;DHT22;2947;52.276;9.946;2023-04-26T13:30:16;12.50;90.30
5842;DHT22;2947;52.276;9.946;2023-04-26T13:32:42;11.50;90.40
5842;DHT22;2947;52.276;9.946;2023-04-26T13:35:08;12.70;99.90
5842;DHT22;2947;52.276;9.946;2023-04-26T13:37:40;11.70;99.00
5842;DHT22;2947;52.276;9.946;2023-04-26T13:40:07;11.50;91.30
5842;DHT22;2947;52.276;9.946;2023-04-26T13:42:44;11.40;82.00
5842;DHT22;2947;52.276;9.946;2023-04-26T13:45:11;11.70;99.90
5842;DHT22;2947;52.276;9.946;2023-04-26T13:47:48;11.80;71.20
5842;DHT22;2947;52.276;9.946;2023-04-26T13:50:15;11.20;91.20
5842;DHT22;2947;52.276;9.946;2023-04-26T13:52:46;11.20;87.00
5842;DHT22;2947;52.276;9.946;2023-04-26T13:55:15;11.70;94.10
5842;DHT22;2947;52.276;9.946;2023-04-26T13:57:41;11.30;70.20
5842;DHT22;2947;52.276;9.946;2023-04-26T14:00:07;11.30;67.30
5842;DHT22;2947;52.276;9.946;2023-04-26T14:02:33;11.20;67.60
5842;DHT22;2947;52.276;9.946;2023-04-26T14:04:59;11.30;66.30
5842;DHT22;2947;52.276;9.946;2023-04-26T14:07:25;11.10;61.90
5842;DHT22;2947;52.276;9.946;2023-04-26T14:09:51;11.20;70.90
5842;DHT22;2947;52.276;9.946;2023-04-26T14:12:20;11.20;93.50
5842;DHT22;2947;52.276;9.946;2023-04-26T14:14:45;11.10;67.00
5842;DHT22;2947;52.276;9.946;2023-04-26T14:17:12;10.90;69.40
5842;DHT22;2947;52.276;9.946;2023-04-26T14:19:40;10.90;77.40
5842;DHT22;2947;52.276;9.946;2023-04-26T14:22:06;10.90;72.70
5842;DHT22;2947;52.276;9.946;2023-04-26T14:24:34;10.90;66.70
5842;DHT22;2947;52.276;9.946;2023-04-26T14:27:00;11.60;67.50
5842;DHT22;2947;52.276;9.946;2023-04-26T14:29:26;10.80;65.10
5842;DHT22;2947;52.276;9.946;2023-04-26T14:31:51;10.90;65.60
5842;DHT22;2947;52.276;9.946;2023-04-26T14:34:17;11.00;69.60
5842;DHT22;2947;52.276;9.946;2023-04-26T14:36:48;10.90;87.70
5842;DHT22;2947;52.276;9.946;2023-04-26T14:39:14;11.10;71.10
5842;DHT22;2947;52.276;9.946;2023-04-26T14:41:41;11.20;72.30
5842;DHT22;2947;52.276;9.946;2023-04-26T14:44:09;11.60;96.70
5842;DHT22;2947;52.276;9.946;2023-04-26T14:46:35;11.10;71.90
5842;DHT22;2947;52.276;9.946;2023-04-26T14:49:01;11.80;71.80
5842;DHT22;2947;52.276;9.946;2023-04-26T14:51:27;11.00;73.20
5842;DHT22;2947;52.276;9.946;2023-04-26T14:53:56;11.10;99.90
5842;DHT22;2947;52.276;9.946;2023-04-26T14:56:21;11.00;70.30
5842;DHT22;2947;52.276;9.946;2023-04-26T14:58:48;11.00;72.40
5842;DHT22;2947;52.276;9.946;2023-04-26T15:01:16;11.10;99.10
5842;DHT22;2947;52.276;9.946;2023-04-26T15:03:42;11.10;74.60
5842;DHT22;2947;52.276;9.946;2023-04-26T15:06:08;11.20;73.00
5842;DHT22;2947;52.276;9.946;2023-04-26T15:08:36;11.30;78.90
5842;DHT22;2947;52.276;9.946;2023-04-26T15:11:02;11.30;78.00
5842;DHT22;2947;52.276;9.946;2023-04-26T15:13:28;11.30;78.20
5842;DHT22;2947;52.276;9.946;2023-04-26T15:16:00;11.30;69.90
5842;DHT22;2947;52.276;9.946;2023-04-26T15:18:27;11.30;72.20
5842;DHT22;2947;52.276;9.946;2023-04-26T15:20:53;11.30;76.40
5842;DHT22;2947;52.276;9.946;2023-04-26T15:23:18;11.30;77.50
5842;DHT22;2947;52.276;9.946;2023-04-26T15:25:44;11.30;74.30
5842;DHT22;2947;52.276;9.946;2023-04-26T15:28:09;11.10;66.30
5842;DHT22;2947;52.276;9.946;2023-04-26T15:30:35;11.10;66.00
5842;DHT22;2947;52.276;9.946;2023-04-26T15:33:01;11.10;68.00
5842;DHT22;2947;52.276;9.946;2023-04-26T15:35:37;11.10;65.10
5842;DHT22;2947;52.276;9.946;2023-04-26T15:38:06;11.40;70.30
5842;DHT22;2947;52.276;9.946;2023-04-26T15:40:34;11.10;81.00
5842;DHT22;2947;52.276;9.946;2023-04-26T15:43:00;11.10;70.50
5842;DHT22;2947;52.276;9.946;2023-04-26T15:45:34;11.00;99.90
5842;DHT22;2947;52.276;9.946;2023-04-26T15:48:03;11.00;71.50
5842;DHT22;2947;52.276;9.946;2023-04-26T15:50:29;10.80;71.40
5842;DHT22;2947;52.276;9.946;2023-04-26T15:52:55;10.80;69.80
5842;DHT22;2947;52.276;9.946;2023-04-26T15:55:22;10.50;62.90
5842;DHT22;2947;52.276;9.946;2023-04-26T15:57:48;10.60;63.60
5842;DHT22;2947;52.276;9.946;2023-04-26T16:00:15;10.60;65.90
5842;DHT22;2947;52.276;9.946;2023-04-26T16:02:42;10.40;64.70
5842;DHT22;2947;52.276;9.946;2023-04-26T16:05:09;10.50;65.30
5842;DHT22;2947;52.276;9.946;2023-04-26T16:07:36;10.40;59.90
5842;DHT22;2947;52.276;9.946;2023-04-26T16:10:06;10.40;59.90
5842;DHT22;2947;52.276;9.946;2023-04-26T16:12:33;10.30;65.30
5842;DHT22;2947;52.276;9.946;2023-04-26T16:15:09;10.30;61.00
5842;DHT22;2947;52.276;9.946;2023-04-26T16:17:35;10.30;60.20
5842;DHT22;2947;52.276;9.946;2023-04-26T16:20:02;10.20;58.40
5842;DHT22;2947;52.276;9.946;2023-04-26T16:22:30;10.10;78.90
5842;DHT22;2947;52.276;9.946;2023-04-26T16:24:58;10.20;59.10
5842;DHT22;2947;52.276;9.946;2023-04-26T16:27:24;10.20;59.60
5842;DHT22;2947;52.276;9.946;2023-04-26T16:29:52;10.20;60.00
5842;DHT22;2947;52.276;9.946;2023-04-26T16:32:19;10.30;64.00
5842;DHT22;2947;52.276;9.946;2023-04-26T16:34:45;10.30;68.60
5842;DHT22;2947;52.276;9.946;2023-04-26T16:37:11;10.40;61.40